createdAt,value
2022-12-22T06:48:01.904Z,2.20
2022-12-22T06:49:02.887Z,4.20
2022-12-22T06:50:02.885Z,10.80
2022-12-22T06:51:02.866Z,5.50
2022-12-22T06:52:02.852Z,8.10
2022-12-22T06:53:02.853Z,11.20
2022-12-22T06:54:02.832Z,8.70
2022-12-22T06:55:02.827Z,7.80
2022-12-22T06:56:02.805Z,6.20
2022-12-22T06:57:02.823Z,6.50
2022-12-22T06:58:02.815Z,4.70
2022-12-22T06:59:02.780Z,6.60
2022-12-22T07:00:02.797Z,5.10
2022-12-22T07:01:02.832Z,9.00
2022-12-22T07:02:02.870Z,6.40
2022-12-22T07:03:02.956Z,7.90
2022-12-22T07:04:02.800Z,6.50
2022-12-22T07:05:02.717Z,7.10
2022-12-22T07:06:02.706Z,7.30
2022-12-22T07:07:02.687Z,8.20
2022-12-22T07:08:08.084Z,8.50
2022-12-22T07:09:02.695Z,7.90
2022-12-22T07:10:02.711Z,7.50
2022-12-22T07:11:02.701Z,5.10
2022-12-22T07:12:02.637Z,7.60
2022-12-22T07:13:02.856Z,8.00
2022-12-22T07:14:02.618Z,7.10
2022-12-22T07:15:02.611Z,6.80
2022-12-22T07:16:02.759Z,7.00
2022-12-22T07:17:02.646Z,7.40
2022-12-22T07:18:02.608Z,9.70
2022-12-22T07:19:02.596Z,8.60
2022-12-22T07:20:02.550Z,8.20
2022-12-22T07:21:02.651Z,10.40
2022-12-22T07:22:02.533Z,7.60
2022-12-22T07:23:02.551Z,10.30
2022-12-22T07:24:02.511Z,9.40
2022-12-22T07:25:02.529Z,9.20
2022-12-22T07:26:02.535Z,7.90
2022-12-22T07:27:02.534Z,8.00
2022-12-22T07:28:02.500Z,11.50
2022-12-22T07:29:02.506Z,6.20
2022-12-22T07:30:02.537Z,8.40
2022-12-22T07:31:02.484Z,6.20
2022-12-22T07:32:02.469Z,9.80
2022-12-22T07:33:02.464Z,6.60
2022-12-22T07:34:02.451Z,9.30
2022-12-22T07:35:05.676Z,7.70
2022-12-22T07:36:02.378Z,7.20
2022-12-22T07:37:02.375Z,7.80
2022-12-22T07:38:02.371Z,7.50
2022-12-22T07:39:02.376Z,9.10
2022-12-22T07:40:02.361Z,5.90
2022-12-22T07:41:05.186Z,10.00
2022-12-22T07:42:02.336Z,8.60
2022-12-22T07:43:02.308Z,9.90
2022-12-22T07:44:02.344Z,6.90
2022-12-22T07:45:02.291Z,7.30
2022-12-22T07:46:02.318Z,6.70
2022-12-22T07:47:02.348Z,8.70
2022-12-22T07:48:02.250Z,14.00
2022-12-22T07:49:02.302Z,7.50
2022-12-22T07:50:02.249Z,7.70
2022-12-22T07:51:02.246Z,9.20
2022-12-22T07:52:02.221Z,11.00
2022-12-22T07:53:02.194Z,8.80
2022-12-22T07:54:02.198Z,10.00
2022-12-22T07:55:02.194Z,9.50
2022-12-22T07:56:02.194Z,7.80
2022-12-22T07:57:02.158Z,7.10
2022-12-22T07:58:02.189Z,9.70
2022-12-22T07:59:02.148Z,7.90
2022-12-22T08:00:02.147Z,9.80
2022-12-22T08:01:02.132Z,7.50
2022-12-22T08:02:02.192Z,7.30
2022-12-22T08:03:02.205Z,8.40
2022-12-22T08:04:02.147Z,7.40
2022-12-22T08:05:02.120Z,8.50
2022-12-22T08:06:02.081Z,6.50
2022-12-22T08:07:02.054Z,7.00
2022-12-22T08:08:02.049Z,8.60
2022-12-22T08:09:02.022Z,8.40
2022-12-22T08:10:02.096Z,8.50
2022-12-22T08:11:02.016Z,10.40
2022-12-22T08:12:02.041Z,11.40
2022-12-22T08:13:02.072Z,8.50
2022-12-22T08:14:02.409Z,9.20
2022-12-22T08:15:02.024Z,7.30
2022-12-22T08:16:02.017Z,9.20
2022-12-22T08:17:01.976Z,8.20
2022-12-22T08:18:01.946Z,10.80
2022-12-22T08:19:01.937Z,9.50
2022-12-22T08:20:01.932Z,9.70
2022-12-22T08:21:01.937Z,9.00
2022-12-22T08:22:01.896Z,10.20
2022-12-22T08:23:01.881Z,6.40
2022-12-22T08:24:01.873Z,10.40
2022-12-22T08:25:01.876Z,9.30
2022-12-22T08:26:02.247Z,10.30
2022-12-22T08:27:01.841Z,8.70
2022-12-22T08:28:01.823Z,8.90
2022-12-22T08:29:01.813Z,11.30
2022-12-22T08:30:01.811Z,10.20
2022-12-22T08:31:01.870Z,7.70
2022-12-22T08:32:01.895Z,7.70
2022-12-22T08:33:01.787Z,6.90
2022-12-22T08:34:01.843Z,6.50
2022-12-22T08:35:01.756Z,8.30
2022-12-22T08:36:07.810Z,12.50
2022-12-22T08:37:01.843Z,9.20
2022-12-22T08:38:01.745Z,7.30
2022-12-22T08:39:01.715Z,8.70
2022-12-22T08:40:01.833Z,5.30
2022-12-22T08:41:01.716Z,7.10
2022-12-22T08:42:01.724Z,7.40
2022-12-22T08:43:01.667Z,8.30
2022-12-22T08:44:01.774Z,8.80
2022-12-22T08:45:01.733Z,7.60
2022-12-22T08:46:01.677Z,7.30
2022-12-22T08:47:01.801Z,5.40
2022-12-22T08:48:01.640Z,5.80
2022-12-22T08:49:01.608Z,7.90
2022-12-22T08:50:01.590Z,6.70
2022-12-22T08:51:01.579Z,8.70
2022-12-22T08:52:01.667Z,7.40
2022-12-22T08:53:01.559Z,8.90
2022-12-22T08:54:05.135Z,6.60
2022-12-22T08:55:01.563Z,7.90
2022-12-22T08:56:01.567Z,8.20
2022-12-22T08:57:01.525Z,5.70
2022-12-22T08:58:01.518Z,7.60
2022-12-22T08:59:01.509Z,6.70
2022-12-22T09:00:01.532Z,5.50
2022-12-22T09:01:01.527Z,4.60
2022-12-22T09:02:01.625Z,7.90
2022-12-22T09:03:01.606Z,7.20
2022-12-22T09:04:01.463Z,7.90
2022-12-22T09:05:01.457Z,6.70
2022-12-22T09:06:01.451Z,8.60
2022-12-22T09:07:01.516Z,4.90
2022-12-22T09:08:01.395Z,7.30
2022-12-22T09:09:01.423Z,6.70
2022-12-22T09:10:01.373Z,6.10
2022-12-22T09:11:01.379Z,6.20
2022-12-22T09:12:01.392Z,6.60
2022-12-22T09:13:01.341Z,7.00
2022-12-22T09:14:01.369Z,8.10
2022-12-22T09:15:01.360Z,7.10
2022-12-22T09:16:01.354Z,7.70
2022-12-22T09:17:01.435Z,5.60
2022-12-22T09:18:01.343Z,5.30
2022-12-22T09:19:01.319Z,8.70
2022-12-22T09:20:01.331Z,6.20
2022-12-22T09:21:01.311Z,6.70
2022-12-22T09:22:01.463Z,5.20
2022-12-22T09:23:01.232Z,7.10
2022-12-22T09:24:01.210Z,6.70
2022-12-22T09:25:01.209Z,5.30
2022-12-22T09:26:01.218Z,5.50
2022-12-22T09:27:01.207Z,5.30
2022-12-22T09:28:01.221Z,7.20
2022-12-22T09:29:01.182Z,5.10
2022-12-22T09:30:01.206Z,6.50
2022-12-22T09:31:01.147Z,5.30
2022-12-22T09:32:01.275Z,4.50
2022-12-22T09:33:01.200Z,6.40
2022-12-22T09:34:01.140Z,6.40
2022-12-22T09:35:01.137Z,6.70
2022-12-22T09:36:01.108Z,6.80
2022-12-22T09:37:01.090Z,6.60
2022-12-22T09:38:01.077Z,8.40
2022-12-22T09:39:01.079Z,4.50
2022-12-22T09:40:01.048Z,7.40
2022-12-22T09:41:01.074Z,7.10
2022-12-22T09:42:01.048Z,7.60
2022-12-22T09:43:01.028Z,7.00
2022-12-22T09:44:01.741Z,8.50
2022-12-22T09:45:01.002Z,5.20
2022-12-22T09:46:01.052Z,7.60
2022-12-22T09:47:00.972Z,5.10
2022-12-22T09:48:00.975Z,6.70
2022-12-22T09:49:01.051Z,8.00
2022-12-22T09:50:00.947Z,5.60
2022-12-22T09:51:00.939Z,6.50
2022-12-22T09:52:00.923Z,6.90
2022-12-22T09:53:00.983Z,7.10
2022-12-22T09:54:00.915Z,7.20
2022-12-22T09:55:00.913Z,6.00
2022-12-22T09:56:00.936Z,4.10
2022-12-22T09:57:00.881Z,5.90
2022-12-22T09:58:00.904Z,6.60
2022-12-22T09:59:00.862Z,6.70
2022-12-22T10:00:00.853Z,6.40
2022-12-22T10:01:00.992Z,8.40
2022-12-22T10:02:01.031Z,8.20
2022-12-22T10:03:01.861Z,6.20
2022-12-22T10:04:01.275Z,6.10
2022-12-22T10:05:00.868Z,7.30
2022-12-22T10:06:00.899Z,5.60
2022-12-22T10:07:00.788Z,6.30
2022-12-22T10:08:00.850Z,8.10
2022-12-22T10:09:00.765Z,7.00
2022-12-22T10:10:00.753Z,6.60
2022-12-22T10:11:00.712Z,5.70
2022-12-22T10:12:00.715Z,6.90
2022-12-22T10:13:00.688Z,4.80
2022-12-22T10:14:00.710Z,6.50
2022-12-22T10:15:00.720Z,11.20
2022-12-22T10:16:00.696Z,6.90
2022-12-22T10:17:00.739Z,5.80
2022-12-22T10:18:00.689Z,5.50
2022-12-22T10:19:00.650Z,4.20
2022-12-22T10:20:00.654Z,6.40
2022-12-22T10:21:00.619Z,5.80
2022-12-22T10:22:00.632Z,7.40
2022-12-22T10:23:00.582Z,6.30
2022-12-22T10:24:00.581Z,5.80
2022-12-22T10:25:00.594Z,5.60
2022-12-22T10:26:27.369Z,7.40
2022-12-22T10:27:00.554Z,6.80
2022-12-22T10:28:00.782Z,4.80
2022-12-22T10:29:00.554Z,7.90
2022-12-22T10:30:00.519Z,5.60
2022-12-22T10:31:00.512Z,4.50
2022-12-22T10:32:00.676Z,3.60
2022-12-22T10:33:00.485Z,5.40
2022-12-22T10:34:00.498Z,5.30
2022-12-22T10:35:00.480Z,6.10
2022-12-22T10:36:01.401Z,7.70
2022-12-22T10:37:00.442Z,5.80
2022-12-22T10:38:00.450Z,7.40
2022-12-22T10:39:00.420Z,5.90
2022-12-22T10:40:00.452Z,3.20
2022-12-22T10:41:02.707Z,6.90
2022-12-22T10:42:00.449Z,4.70
2022-12-22T10:43:00.370Z,4.80
2022-12-22T10:44:00.365Z,5.10
2022-12-22T10:45:00.423Z,5.50
2022-12-22T10:46:00.437Z,7.50
2022-12-22T10:47:00.352Z,6.70
2022-12-22T10:48:00.323Z,5.80
2022-12-22T10:49:00.310Z,6.30
2022-12-22T10:50:30.470Z,4.30
2022-12-22T10:51:31.471Z,5.30
2022-12-22T10:52:32.331Z,4.30
2022-12-22T10:53:31.430Z,2.80
2022-12-22T10:54:31.412Z,5.70
2022-12-22T10:55:31.418Z,3.90
2022-12-22T10:56:31.390Z,5.40
2022-12-22T10:57:31.449Z,5.20
2022-12-22T10:58:31.401Z,5.10
2022-12-22T10:59:31.399Z,6.70
2022-12-22T11:00:31.414Z,7.10
2022-12-22T11:01:31.568Z,5.80
2022-12-22T11:02:31.613Z,5.70
2022-12-22T11:03:31.540Z,5.70
2022-12-22T11:04:31.343Z,4.80
2022-12-22T11:05:31.367Z,5.30
2022-12-22T11:06:31.311Z,8.10
2022-12-22T11:07:31.277Z,6.90
2022-12-22T11:08:31.255Z,3.60
2022-12-22T11:09:34.541Z,7.40
2022-12-22T11:10:31.249Z,3.70
2022-12-22T11:11:31.244Z,3.10
2022-12-22T11:12:31.242Z,6.10
2022-12-22T11:13:31.212Z,5.90
2022-12-22T11:14:31.216Z,5.20
2022-12-22T11:15:31.205Z,5.90
2022-12-22T11:16:31.192Z,5.00
2022-12-22T11:17:31.197Z,6.50
2022-12-22T11:18:31.161Z,8.60
2022-12-22T11:19:31.159Z,5.50
2022-12-22T11:20:31.131Z,5.20
2022-12-22T11:21:31.278Z,8.60
2022-12-22T11:22:31.121Z,3.50
2022-12-22T11:23:31.118Z,4.20
2022-12-22T11:24:31.084Z,5.60
2022-12-22T11:25:31.070Z,6.80
2022-12-22T11:26:31.083Z,4.20
2022-12-22T11:27:31.103Z,4.80
2022-12-22T11:28:31.516Z,7.90
2022-12-22T11:29:31.035Z,6.80
2022-12-22T11:30:31.049Z,6.40
2022-12-22T11:31:31.130Z,4.60
2022-12-22T11:32:31.005Z,4.10
2022-12-22T11:33:31.002Z,5.60
2022-12-22T11:34:31.015Z,5.40
2022-12-22T11:35:30.962Z,4.40
2022-12-22T11:36:30.991Z,6.90
2022-12-22T11:37:30.956Z,4.70
2022-12-22T11:38:30.973Z,6.70
2022-12-22T11:39:30.964Z,4.30
2022-12-22T11:40:30.942Z,3.90
2022-12-22T11:41:30.914Z,4.50
2022-12-22T11:42:30.900Z,4.90
2022-12-22T11:43:30.893Z,6.50
2022-12-22T11:44:30.919Z,4.80
2022-12-22T11:45:30.883Z,5.00
2022-12-22T11:46:30.940Z,5.70
2022-12-22T11:47:30.868Z,6.60
2022-12-22T11:48:30.825Z,4.00
2022-12-22T11:49:30.837Z,5.30
2022-12-22T11:50:58.416Z,5.80
2022-12-22T11:51:30.848Z,6.60
2022-12-22T11:52:30.837Z,4.30
2022-12-22T11:53:30.802Z,7.70
2022-12-22T11:54:30.760Z,5.60
2022-12-22T11:55:30.781Z,3.80
2022-12-22T11:56:30.763Z,6.10
2022-12-22T11:57:30.730Z,9.50
2022-12-22T11:58:30.719Z,4.00
2022-12-22T11:59:30.804Z,6.00
2022-12-22T12:00:56.237Z,5.50
2022-12-22T12:01:30.867Z,6.00
2022-12-22T12:02:30.778Z,4.70
2022-12-22T12:03:30.823Z,7.00
2022-12-22T12:04:30.751Z,4.80
2022-12-22T12:05:30.637Z,5.50
2022-12-22T12:06:30.668Z,4.20
2022-12-22T12:07:30.673Z,4.70
2022-12-22T12:08:30.614Z,3.30
2022-12-22T12:09:30.609Z,5.40
2022-12-22T12:10:30.643Z,3.30
2022-12-22T12:11:30.604Z,12.10
2022-12-22T12:12:30.598Z,6.20
2022-12-22T12:13:36.865Z,4.60
2022-12-22T12:14:30.588Z,3.10
2022-12-22T12:15:30.542Z,7.20
2022-12-22T12:16:30.647Z,3.90
2022-12-22T12:17:30.555Z,6.00
2022-12-22T12:18:30.519Z,6.20
2022-12-22T12:19:30.536Z,7.70
2022-12-22T12:20:30.508Z,4.30
2022-12-22T12:21:30.568Z,4.20
2022-12-22T12:22:30.480Z,5.90
2022-12-22T12:23:30.496Z,4.90
2022-12-22T12:24:30.442Z,6.70
2022-12-22T12:25:30.458Z,3.70
2022-12-22T12:26:30.446Z,6.10
2022-12-22T12:27:30.419Z,4.80
2022-12-22T12:28:30.397Z,6.40
2022-12-22T12:29:30.391Z,4.70
2022-12-22T12:30:39.160Z,4.00
2022-12-22T12:31:30.503Z,4.60
2022-12-22T12:32:30.392Z,4.90
2022-12-22T12:33:30.366Z,6.20
2022-12-22T12:34:30.353Z,3.80
2022-12-22T12:35:30.358Z,3.60
2022-12-22T12:36:30.339Z,5.40
2022-12-22T12:37:30.339Z,6.90
2022-12-22T12:39:06.447Z,4.40
2022-12-22T12:39:30.298Z,4.30
2022-12-22T12:40:30.277Z,5.80
2022-12-22T12:41:30.265Z,5.10
2022-12-22T12:42:30.357Z,4.80
2022-12-22T12:43:30.239Z,4.20
2022-12-22T12:44:30.243Z,4.20
2022-12-22T12:45:30.223Z,4.20
2022-12-22T12:46:30.274Z,5.40
2022-12-22T12:47:30.220Z,6.90
2022-12-22T12:48:30.208Z,5.60
2022-12-22T12:49:30.169Z,3.70
2022-12-22T12:50:30.167Z,4.90
2022-12-22T12:51:30.202Z,5.00
2022-12-22T12:52:30.209Z,5.30
2022-12-22T12:53:30.203Z,6.30
2022-12-22T12:54:30.207Z,3.60
2022-12-22T12:55:32.836Z,4.90
2022-12-22T12:56:30.170Z,6.90
2022-12-22T12:57:30.102Z,6.20
2022-12-22T12:58:30.140Z,4.20
2022-12-22T12:59:30.078Z,3.60
2022-12-22T13:00:30.098Z,9.00
2022-12-22T13:01:30.148Z,6.90
2022-12-22T13:02:30.217Z,5.60
2022-12-22T13:04:01.876Z,3.90
2022-12-22T13:04:30.230Z,4.60
2022-12-22T13:05:30.061Z,6.20
2022-12-22T13:06:30.009Z,4.30
2022-12-22T13:07:29.982Z,3.50
2022-12-22T13:08:29.988Z,3.90
2022-12-22T13:10:30.016Z,4.50
2022-12-22T13:12:01.656Z,3.40
2022-12-22T13:12:29.955Z,4.60
2022-12-22T13:13:29.925Z,3.60
2022-12-22T13:14:29.990Z,2.80
2022-12-22T13:15:29.914Z,5.20
2022-12-22T13:16:30.061Z,3.70
2022-12-22T13:17:29.911Z,2.90
2022-12-22T13:18:29.878Z,3.10
2022-12-22T13:19:29.879Z,7.20
2022-12-22T13:20:29.855Z,4.70
2022-12-22T13:22:29.840Z,5.00
2022-12-22T13:23:29.829Z,5.30
2022-12-22T13:24:29.945Z,6.80
2022-12-22T13:25:29.840Z,5.00
2022-12-22T13:26:29.782Z,8.00
2022-12-22T13:27:29.797Z,5.40
2022-12-22T13:28:29.753Z,4.50
2022-12-22T13:29:29.740Z,4.90
2022-12-22T13:30:29.740Z,4.60
2022-12-22T13:31:29.778Z,3.60
2022-12-22T13:32:29.730Z,4.50
2022-12-22T13:33:29.733Z,7.30
2022-12-22T13:34:29.745Z,4.10
2022-12-22T13:35:32.099Z,4.70
2022-12-22T13:36:29.697Z,4.10
2022-12-22T13:37:29.691Z,5.90
2022-12-22T13:38:29.660Z,3.30
2022-12-22T13:39:29.650Z,5.40
2022-12-22T13:40:29.644Z,4.10
2022-12-22T13:41:29.749Z,4.80
2022-12-22T13:42:29.720Z,6.40
2022-12-22T13:43:29.629Z,8.60
2022-12-22T13:44:29.607Z,4.70
2022-12-22T13:45:29.639Z,4.90
2022-12-22T13:46:29.647Z,6.60
2022-12-22T13:47:29.569Z,4.80
2022-12-22T13:48:29.568Z,5.30
2022-12-22T13:49:59.271Z,4.30
2022-12-22T13:50:29.552Z,4.10
2022-12-22T13:51:29.530Z,5.30
2022-12-22T13:52:29.496Z,6.40
2022-12-22T13:54:29.508Z,4.90
2022-12-22T13:55:29.488Z,4.30
2022-12-22T13:56:29.488Z,4.70
2022-12-22T13:57:29.532Z,4.80
2022-12-22T13:58:29.496Z,3.90
2022-12-22T13:59:29.505Z,6.00
2022-12-22T14:00:29.533Z,4.50
2022-12-22T14:01:29.585Z,5.30
2022-12-22T14:02:29.596Z,7.60
2022-12-22T14:03:58.282Z,4.80
2022-12-22T14:04:29.664Z,4.50
2022-12-22T14:05:29.372Z,6.50
2022-12-22T14:06:29.421Z,7.10
2022-12-22T14:07:29.430Z,6.50
2022-12-22T14:08:29.452Z,7.50
2022-12-22T14:09:29.468Z,8.10
2022-12-22T14:10:29.432Z,5.00
2022-12-22T14:11:29.295Z,6.10
2022-12-22T14:12:29.292Z,4.60
2022-12-22T14:13:29.288Z,4.50
2022-12-22T14:14:29.279Z,5.00
2022-12-22T14:15:29.250Z,4.70
2022-12-22T14:16:29.338Z,4.70
2022-12-22T14:17:29.254Z,5.60
2022-12-22T14:18:29.227Z,5.50
2022-12-22T14:19:29.219Z,6.20
2022-12-22T14:20:29.217Z,5.80
2022-12-22T14:21:29.197Z,8.20
2022-12-22T14:22:29.213Z,4.50
2022-12-22T14:23:29.183Z,4.00
2022-12-22T14:24:33.229Z,4.70
2022-12-22T14:25:29.156Z,5.50
2022-12-22T14:26:29.165Z,3.70
2022-12-22T14:27:29.115Z,5.90
2022-12-22T14:28:29.135Z,4.50
2022-12-22T14:29:29.127Z,6.20
2022-12-22T14:30:32.171Z,5.80
2022-12-22T14:31:29.174Z,4.40
2022-12-22T14:32:29.060Z,3.70
2022-12-22T14:33:29.053Z,4.70
2022-12-22T14:34:29.041Z,4.90
2022-12-22T14:35:29.054Z,4.20
2022-12-22T14:36:29.034Z,3.30
2022-12-22T14:37:32.890Z,4.50
2022-12-22T14:38:29.032Z,3.80
2022-12-22T14:39:29.015Z,3.00
2022-12-22T14:40:29.067Z,4.10
2022-12-22T14:41:28.978Z,3.90
2022-12-22T14:42:28.959Z,4.30
2022-12-22T14:43:28.960Z,3.40
2022-12-22T14:44:28.981Z,2.70
2022-12-22T14:45:28.980Z,3.20
2022-12-22T14:46:32.345Z,4.30
2022-12-22T14:47:28.938Z,3.90
2022-12-22T14:48:28.894Z,5.40
2022-12-22T14:49:28.910Z,1.80
2022-12-22T14:50:28.912Z,3.40
2022-12-22T14:51:28.880Z,3.30
2022-12-22T14:52:28.857Z,3.40
2022-12-22T14:53:28.845Z,4.00
2022-12-22T14:54:28.860Z,2.20
2022-12-22T14:55:28.840Z,3.80
2022-12-22T14:56:28.810Z,2.40
2022-12-22T14:57:28.821Z,1.70
2022-12-22T14:58:28.819Z,4.00
2022-12-22T14:59:28.791Z,3.80
2022-12-22T15:00:29.137Z,4.80
2022-12-22T15:01:29.060Z,3.90
2022-12-22T15:02:33.430Z,3.10
2022-12-22T15:03:28.880Z,4.60
2022-12-22T15:04:28.729Z,3.70
2022-12-22T15:05:28.721Z,4.00
2022-12-22T15:06:28.713Z,2.90
2022-12-22T15:08:03.819Z,4.10
2022-12-22T15:08:33.306Z,2.50
2022-12-22T15:10:12.543Z,1.70
2022-12-22T15:10:28.680Z,3.00
2022-12-22T15:11:28.682Z,1.50
2022-12-22T15:12:28.666Z,4.00
2022-12-22T15:13:28.637Z,3.00
2022-12-22T15:14:33.377Z,2.90
2022-12-22T15:15:28.640Z,2.50
2022-12-22T15:16:28.694Z,2.20
2022-12-22T15:17:28.582Z,3.30
2022-12-22T15:18:28.598Z,1.80
2022-12-22T15:19:28.573Z,1.60
2022-12-22T15:20:33.626Z,2.50
2022-12-22T15:21:28.563Z,1.90
2022-12-22T15:22:28.536Z,1.30
2022-12-22T15:23:28.519Z,2.10
2022-12-22T15:24:28.517Z,3.30
2022-12-22T15:25:28.507Z,3.20
2022-12-22T15:26:33.013Z,2.10
2022-12-22T15:27:28.489Z,2.10
2022-12-22T15:28:28.465Z,2.50
2022-12-22T15:29:28.452Z,2.20
2022-12-22T15:30:31.892Z,3.50
2022-12-22T15:31:28.619Z,1.50
2022-12-22T15:32:31.870Z,4.20
2022-12-22T15:33:28.467Z,5.30
2022-12-22T15:34:28.555Z,4.70
2022-12-22T15:35:28.458Z,3.50
2022-12-22T15:36:28.481Z,3.40
2022-12-22T15:37:28.427Z,3.30
2022-12-22T15:38:32.165Z,4.50
2022-12-22T15:39:28.415Z,3.80
2022-12-22T15:40:28.433Z,3.80
2022-12-22T15:41:28.437Z,4.20
2022-12-22T15:42:28.400Z,2.30
2022-12-22T15:43:56.485Z,2.30
2022-12-22T15:44:31.080Z,4.60
2022-12-22T15:45:28.369Z,2.50
2022-12-22T15:46:28.378Z,5.20
2022-12-22T15:47:28.333Z,2.90
2022-12-22T15:48:28.320Z,3.10
2022-12-22T15:49:28.330Z,2.80
2022-12-22T15:50:32.170Z,3.50
2022-12-22T15:51:28.292Z,3.20
2022-12-22T15:52:28.261Z,3.40
2022-12-22T15:53:28.266Z,4.00
2022-12-22T15:54:28.245Z,3.00
2022-12-22T15:55:28.244Z,2.70
2022-12-22T15:56:28.225Z,2.40
2022-12-22T15:57:28.212Z,2.90
2022-12-22T15:58:28.199Z,2.80
2022-12-22T15:59:28.200Z,2.90
2022-12-22T16:00:28.176Z,4.50
2022-12-22T16:01:28.281Z,2.30
2022-12-22T16:02:28.335Z,2.90
2022-12-22T16:03:28.295Z,2.80
2022-12-22T16:04:28.163Z,3.20
2022-12-22T16:05:28.140Z,2.80
2022-12-22T16:06:28.111Z,7.00
2022-12-22T16:07:28.131Z,2.80
2022-12-22T16:08:28.110Z,5.30
2022-12-22T16:09:28.102Z,3.20
2022-12-22T16:10:28.097Z,4.10
2022-12-22T16:11:28.064Z,4.90
2022-12-22T16:12:28.073Z,4.30
2022-12-22T16:13:28.794Z,4.40
2022-12-22T16:14:31.184Z,4.50
2022-12-22T16:15:28.044Z,4.30
2022-12-22T16:16:28.105Z,4.50
2022-12-22T16:17:28.021Z,6.10
2022-12-22T16:18:27.993Z,3.70
2022-12-22T16:19:27.981Z,5.20
2022-12-22T16:20:29.658Z,4.50
2022-12-22T16:21:27.977Z,10.00
2022-12-22T16:22:27.985Z,5.30
2022-12-22T16:23:27.971Z,4.10
2022-12-22T16:24:27.929Z,9.10
2022-12-22T16:25:27.924Z,8.10
2022-12-22T16:26:27.917Z,5.80
2022-12-22T16:27:27.889Z,7.80
2022-12-22T16:28:27.930Z,6.80
2022-12-22T16:29:27.998Z,5.40
2022-12-22T16:30:27.860Z,8.60
2022-12-22T16:31:27.956Z,6.30
2022-12-22T16:32:27.829Z,7.60
2022-12-22T16:33:27.861Z,7.20
2022-12-22T16:34:27.823Z,9.20
2022-12-22T16:35:27.803Z,9.70
2022-12-22T16:36:27.792Z,8.50
2022-12-22T16:37:27.784Z,7.30
2022-12-22T16:38:27.776Z,8.30
2022-12-22T16:39:27.755Z,5.80
2022-12-22T16:40:27.748Z,6.60
2022-12-22T16:41:27.742Z,8.90
2022-12-22T16:43:52.860Z,5.30
2022-12-22T16:45:00.303Z,7.30
2022-12-22T16:45:40.255Z,7.30
2022-12-22T16:46:39.478Z,6.60
2022-12-22T16:47:39.266Z,8.60
2022-12-22T16:48:39.280Z,9.20
2022-12-22T16:49:39.254Z,5.90
2022-12-22T16:50:39.242Z,6.90
2022-12-22T16:51:39.255Z,6.20
2022-12-22T16:52:39.264Z,5.20
2022-12-22T16:53:39.220Z,6.20
2022-12-22T16:54:39.206Z,7.90
2022-12-22T16:55:39.189Z,5.30
2022-12-22T16:56:39.165Z,9.20
2022-12-22T16:57:39.183Z,8.20
2022-12-22T16:58:39.152Z,9.10
2022-12-22T16:59:39.167Z,8.50
2022-12-22T17:00:39.149Z,8.50
2022-12-22T17:01:39.211Z,6.30
2022-12-22T17:02:39.341Z,7.70
2022-12-22T17:03:39.181Z,8.20
2022-12-22T17:04:39.094Z,6.20
2022-12-22T17:05:44.527Z,10.10
2022-12-22T17:06:39.093Z,5.00
2022-12-22T17:07:39.076Z,9.40
2022-12-22T17:08:39.054Z,7.90
2022-12-22T17:09:39.039Z,6.30
2022-12-22T17:10:39.067Z,8.60
2022-12-22T17:11:39.066Z,6.60
2022-12-22T17:12:39.023Z,6.70
2022-12-22T17:13:39.056Z,8.10
2022-12-22T17:14:39.026Z,7.90
2022-12-22T17:15:39.026Z,6.50
2022-12-22T17:16:39.014Z,10.20
2022-12-22T17:17:42.363Z,7.50
2022-12-22T17:18:38.942Z,9.20
2022-12-22T17:19:38.946Z,7.50
2022-12-22T17:20:38.931Z,8.20
2022-12-22T17:21:38.960Z,9.40
2022-12-22T17:22:39.069Z,7.90
2022-12-22T17:23:38.892Z,10.30
2022-12-22T17:24:38.870Z,8.70
2022-12-22T17:25:38.874Z,8.80
2022-12-22T17:26:38.866Z,11.10
2022-12-22T17:27:38.880Z,8.00
2022-12-22T17:28:38.871Z,7.60
2022-12-22T17:29:38.825Z,9.50
2022-12-22T17:30:38.805Z,8.20
2022-12-22T17:31:38.853Z,7.00
2022-12-22T17:32:38.796Z,7.00
2022-12-22T17:33:38.783Z,9.80
2022-12-22T17:34:38.803Z,8.60
2022-12-22T17:35:38.751Z,10.40
2022-12-22T17:36:38.759Z,7.80
2022-12-22T17:37:38.736Z,9.80
2022-12-22T17:38:38.733Z,9.60
2022-12-22T17:39:38.749Z,9.20
2022-12-22T17:40:38.787Z,9.10
2022-12-22T17:41:38.751Z,8.30
2022-12-22T17:42:38.721Z,8.40
2022-12-22T17:43:38.675Z,8.30
2022-12-22T17:44:38.693Z,10.90
2022-12-22T17:45:38.651Z,11.70
2022-12-22T17:46:38.684Z,11.90
2022-12-22T17:47:42.721Z,10.00
2022-12-22T17:48:38.623Z,7.60
2022-12-22T17:49:38.619Z,10.20
2022-12-22T17:50:38.597Z,7.10
2022-12-22T17:51:38.608Z,8.20
2022-12-22T17:52:38.596Z,8.70
2022-12-22T17:53:41.038Z,8.50
2022-12-22T17:54:38.586Z,10.50
2022-12-22T17:56:07.019Z,5.30
2022-12-22T17:56:38.571Z,10.30
2022-12-22T17:57:38.534Z,11.10
2022-12-22T17:58:38.540Z,7.70
2022-12-22T17:59:38.506Z,9.00
2022-12-22T18:00:38.505Z,7.80
2022-12-22T18:01:38.597Z,5.90
2022-12-22T18:02:38.658Z,9.00
2022-12-22T18:03:38.511Z,9.00
2022-12-22T18:04:38.449Z,9.80
2022-12-22T18:05:38.437Z,12.90
2022-12-22T18:06:38.422Z,10.20
2022-12-22T18:07:43.651Z,9.50
2022-12-22T18:08:38.399Z,10.50
2022-12-22T18:09:38.406Z,7.70
2022-12-22T18:10:38.376Z,8.40
2022-12-22T18:11:45.482Z,13.30
2022-12-22T18:12:38.467Z,12.00
2022-12-22T18:13:38.375Z,6.60
2022-12-22T18:14:38.324Z,9.40
2022-12-22T18:15:38.343Z,8.00
2022-12-22T18:16:38.370Z,9.40
2022-12-22T18:17:38.318Z,11.00
2022-12-22T18:18:38.308Z,10.00
2022-12-22T18:19:38.306Z,10.50
2022-12-22T18:20:38.265Z,12.80
2022-12-22T18:21:38.256Z,10.20
2022-12-22T18:22:38.351Z,10.10
2022-12-22T18:23:38.289Z,10.10
2022-12-22T18:24:38.226Z,7.90
2022-12-22T18:25:38.235Z,9.30
2022-12-22T18:26:38.223Z,8.20
2022-12-22T18:27:38.241Z,12.20
2022-12-22T18:28:38.186Z,11.00
2022-12-22T18:29:38.165Z,10.50
2022-12-22T18:30:38.174Z,6.70
2022-12-22T18:31:38.223Z,9.60
2022-12-22T18:32:38.148Z,13.10
2022-12-22T18:33:38.153Z,9.60
2022-12-22T18:34:38.124Z,10.60
2022-12-22T18:35:38.113Z,12.00
2022-12-22T18:36:38.356Z,8.10
2022-12-22T18:37:38.091Z,9.70
2022-12-22T18:38:38.090Z,8.90
2022-12-22T18:39:38.141Z,9.60
2022-12-22T18:40:38.048Z,9.90
2022-12-22T18:41:38.066Z,7.70
2022-12-22T18:42:38.057Z,10.00
2022-12-22T18:43:38.035Z,8.00
2022-12-22T18:44:38.023Z,5.30
2022-12-22T18:45:38.023Z,10.60
2022-12-22T18:46:38.029Z,6.00
2022-12-22T18:47:37.983Z,8.00
2022-12-22T18:48:37.976Z,9.50
2022-12-22T18:49:38.074Z,8.40
2022-12-22T18:50:38.006Z,9.50
2022-12-22T18:51:37.989Z,8.00
2022-12-22T18:52:37.967Z,7.30
2022-12-22T18:53:37.940Z,8.70
2022-12-22T18:54:37.907Z,9.80
2022-12-22T18:55:37.941Z,8.70
2022-12-22T18:56:37.924Z,10.50
2022-12-22T18:57:37.904Z,6.40
2022-12-22T18:58:37.918Z,8.90
2022-12-22T18:59:37.934Z,9.60
2022-12-22T19:00:37.943Z,7.90
2022-12-22T19:01:38.113Z,9.40
2022-12-22T19:02:37.967Z,8.60
2022-12-22T19:03:37.806Z,6.40
2022-12-22T19:04:37.801Z,7.10
2022-12-22T19:05:37.836Z,11.20
2022-12-22T19:06:37.789Z,6.90
2022-12-22T19:07:37.826Z,10.20
2022-12-22T19:08:43.423Z,10.50
2022-12-22T19:09:37.755Z,10.60
2022-12-22T19:10:37.738Z,7.40
2022-12-22T19:11:37.742Z,8.30
2022-12-22T19:12:37.732Z,9.80
2022-12-22T19:13:37.703Z,10.60
2022-12-22T19:14:37.691Z,8.80
2022-12-22T19:15:37.694Z,8.50
2022-12-22T19:16:37.733Z,10.00
2022-12-22T19:17:37.666Z,9.10
2022-12-22T19:18:37.667Z,14.20
2022-12-22T19:19:37.647Z,9.80
2022-12-22T19:20:37.655Z,7.20
2022-12-22T19:21:37.622Z,11.20
2022-12-22T19:22:37.619Z,9.90
2022-12-22T19:23:37.619Z,5.70
2022-12-22T19:24:37.638Z,9.60
2022-12-22T19:25:37.604Z,9.20
2022-12-22T19:26:37.561Z,10.80
2022-12-22T19:27:37.611Z,10.60
2022-12-22T19:28:37.589Z,11.30
2022-12-22T19:29:37.545Z,11.50
2022-12-22T19:30:37.560Z,10.40
2022-12-22T19:31:37.614Z,14.20
2022-12-22T19:32:37.627Z,9.10
2022-12-22T19:33:37.489Z,9.80
2022-12-22T19:34:37.500Z,11.60
2022-12-22T19:35:38.408Z,9.10
2022-12-22T19:36:37.462Z,13.00
2022-12-22T19:37:37.447Z,10.40
2022-12-22T19:38:37.452Z,11.80
2022-12-22T19:39:37.484Z,9.20
2022-12-22T19:40:37.426Z,11.90
2022-12-22T19:41:37.486Z,10.20
2022-12-22T19:42:37.411Z,12.50
2022-12-22T19:43:37.389Z,9.40
2022-12-22T19:44:37.375Z,10.20
2022-12-22T19:45:37.498Z,9.30
2022-12-22T19:46:37.417Z,8.80
2022-12-22T19:47:37.381Z,9.80
2022-12-22T19:48:37.339Z,7.80
2022-12-22T19:49:37.369Z,8.40
2022-12-22T19:50:37.305Z,10.20
2022-12-22T19:51:37.336Z,9.90
2022-12-22T19:53:08.039Z,8.90
2022-12-22T19:54:09.061Z,6.60
2022-12-22T19:55:09.072Z,8.60
2022-12-22T19:56:09.053Z,12.50
2022-12-22T19:57:09.078Z,8.90
2022-12-22T19:58:09.032Z,9.10
2022-12-22T19:59:09.025Z,9.50
2022-12-22T20:00:09.122Z,14.20
2022-12-22T20:01:09.083Z,10.20
2022-12-22T20:02:09.219Z,8.50
2022-12-22T20:03:09.118Z,12.60
2022-12-22T20:04:09.084Z,9.10
2022-12-22T20:05:15.110Z,11.60
2022-12-22T20:06:08.960Z,11.70
2022-12-22T20:07:08.942Z,12.30
2022-12-22T20:08:08.928Z,13.60